createdAt,value
2023-01-01T00:01:59.584Z,2.50
2023-01-01T00:04:28.830Z,2.53
2023-01-01T00:06:58.343Z,2.00
2023-01-01T00:09:44.141Z,2.20
2023-01-01T00:12:12.294Z,1.83
2023-01-01T00:14:42.880Z,1.90
2023-01-01T00:17:11.047Z,2.33
2023-01-01T00:19:39.411Z,1.73
2023-01-01T00:22:28.236Z,1.73
2023-01-01T00:24:57.078Z,1.67
2023-01-01T00:27:25.233Z,1.47
2023-01-01T00:29:53.393Z,1.80
2023-01-01T00:32:23.014Z,1.60
2023-01-01T00:34:51.483Z,1.50
2023-01-01T00:37:20.993Z,1.70
2023-01-01T00:39:49.122Z,1.80
2023-01-01T00:42:17.328Z,1.60
2023-01-01T00:44:45.540Z,1.37
2023-01-01T00:47:13.745Z,1.97
2023-01-01T00:49:41.866Z,1.33
2023-01-01T00:52:10.025Z,1.90
2023-01-01T00:54:39.517Z,1.60
2023-01-01T00:57:07.683Z,1.40
2023-01-01T00:59:35.835Z,1.73
2023-01-01T01:02:04.061Z,1.83
2023-01-01T01:04:32.352Z,1.63
2023-01-01T01:07:00.524Z,1.87
2023-01-01T01:09:28.691Z,1.50
2023-01-01T01:12:17.405Z,1.73
2023-01-01T01:14:46.387Z,1.63
2023-01-01T01:17:14.617Z,1.53
2023-01-01T01:19:42.942Z,1.87
2023-01-01T01:22:11.128Z,1.80
2023-01-01T01:24:39.308Z,1.73
2023-01-01T01:27:09.089Z,1.70
2023-01-01T01:29:37.336Z,1.60
2023-01-01T01:32:05.767Z,1.70
2023-01-01T01:34:33.894Z,1.60
2023-01-01T01:37:02.027Z,1.70
2023-01-01T01:39:30.165Z,1.67
2023-01-01T01:41:58.330Z,1.53
2023-01-01T01:44:45.203Z,1.83
2023-01-01T01:47:16.424Z,1.53
2023-01-01T01:49:45.871Z,1.60
2023-01-01T01:52:14.326Z,1.50
2023-01-01T01:54:42.825Z,1.70
2023-01-01T01:57:12.163Z,2.00
2023-01-01T01:59:42.769Z,1.80
2023-01-01T02:02:14.361Z,1.40
2023-01-01T02:04:44.353Z,1.60
2023-01-01T02:07:13.885Z,1.60
2023-01-01T02:09:42.146Z,2.20
2023-01-01T02:12:10.323Z,1.90
2023-01-01T02:14:38.528Z,1.80
2023-01-01T02:17:10.858Z,1.80
2023-01-01T02:19:45.787Z,1.70
2023-01-01T02:22:17.603Z,1.60
2023-01-01T02:24:54.002Z,1.77
2023-01-01T02:27:25.175Z,1.80
2023-01-01T02:29:56.918Z,1.70
2023-01-01T02:32:26.654Z,2.00
2023-01-01T02:34:59.178Z,1.97
2023-01-01T02:37:28.978Z,2.10
2023-01-01T02:39:58.412Z,1.93
2023-01-01T02:42:28.079Z,2.00
2023-01-01T02:44:58.726Z,1.90
2023-01-01T02:47:26.901Z,1.80
2023-01-01T02:49:57.556Z,2.10
2023-01-01T02:52:44.551Z,1.50
2023-01-01T02:55:18.219Z,1.60
2023-01-01T02:57:51.302Z,1.83
2023-01-01T03:00:27.472Z,1.73
2023-01-01T03:03:07.286Z,1.47
2023-01-01T03:05:59.082Z,2.00
2023-01-01T03:08:31.632Z,1.60
2023-01-01T03:11:03.279Z,1.70
2023-01-01T03:13:37.120Z,1.60
2023-01-01T03:16:11.367Z,1.90
2023-01-01T03:18:45.315Z,1.87
2023-01-01T03:23:49.916Z,1.50
2023-01-01T03:26:19.412Z,1.50
2023-01-01T03:28:49.922Z,1.57
2023-01-01T03:31:21.929Z,1.63
2023-01-01T03:33:53.307Z,1.70
2023-01-01T03:36:23.825Z,1.80
2023-01-01T03:38:53.271Z,1.57
2023-01-01T03:41:24.478Z,1.50
2023-01-01T03:43:55.815Z,1.80
2023-01-01T03:46:27.653Z,2.07
2023-01-01T03:49:03.921Z,1.80
2023-01-01T03:51:39.956Z,1.70
2023-01-01T03:54:10.194Z,1.90
2023-01-01T03:56:41.369Z,1.80
2023-01-01T03:59:12.518Z,1.80
2023-01-01T04:01:44.852Z,1.77
2023-01-01T04:04:14.046Z,1.77
2023-01-01T04:06:42.247Z,1.50
2023-01-01T04:09:12.103Z,1.93
2023-01-01T04:12:00.567Z,1.87
2023-01-01T04:14:29.759Z,1.83
2023-01-01T04:16:59.454Z,1.43
2023-01-01T04:19:27.689Z,1.73
2023-01-01T04:21:55.825Z,1.80
2023-01-01T04:24:24.403Z,1.87
2023-01-01T04:26:52.761Z,1.93
2023-01-01T04:29:21.389Z,2.27
2023-01-01T04:31:49.779Z,1.90
2023-01-01T04:34:19.248Z,1.90
2023-01-01T04:36:47.524Z,1.73
2023-01-01T04:39:15.705Z,1.80
2023-01-01T04:41:43.883Z,2.10
2023-01-01T04:44:12.035Z,1.90
2023-01-01T04:46:40.308Z,2.00
2023-01-01T04:49:08.433Z,2.00
2023-01-01T04:51:37.906Z,2.03
2023-01-01T04:54:06.216Z,1.80
2023-01-01T04:56:34.340Z,1.90
2023-01-01T04:59:02.502Z,1.50
2023-01-01T05:01:31.369Z,2.43
2023-01-01T05:04:00.013Z,1.80
2023-01-01T05:06:28.787Z,1.83
2023-01-01T05:08:59.594Z,2.33
2023-01-01T05:11:29.210Z,1.93
2023-01-01T05:13:58.587Z,1.90
2023-01-01T05:16:27.459Z,1.80
2023-01-01T05:18:55.950Z,2.30
2023-01-01T05:21:26.032Z,1.97
2023-01-01T05:23:56.390Z,1.97
2023-01-01T05:26:27.145Z,2.10
2023-01-01T05:28:55.847Z,2.10
2023-01-01T05:31:25.542Z,2.07
2023-01-01T05:33:53.710Z,2.00
2023-01-01T05:36:22.603Z,2.17
2023-01-01T05:38:50.975Z,1.97
2023-01-01T05:41:19.442Z,2.43
2023-01-01T05:43:49.410Z,2.30
2023-01-01T05:46:18.385Z,2.50
2023-01-01T05:48:46.759Z,2.13
2023-01-01T05:51:15.966Z,2.30
2023-01-01T05:53:44.691Z,1.90
2023-01-01T05:56:13.402Z,2.17
2023-01-01T05:58:42.009Z,1.60
2023-01-01T06:01:13.986Z,1.80
2023-01-01T06:03:42.399Z,1.80
2023-01-01T06:06:11.485Z,1.77
2023-01-01T06:08:39.789Z,2.17
2023-01-01T06:11:08.640Z,2.00
2023-01-01T06:13:36.856Z,2.10
2023-01-01T06:16:05.871Z,2.20
2023-01-01T06:18:36.277Z,2.00
2023-01-01T06:21:08.004Z,2.20
2023-01-01T06:23:36.241Z,1.93
2023-01-01T06:26:11.562Z,2.10
2023-01-01T06:28:40.298Z,2.10
2023-01-01T06:31:09.522Z,2.03
2023-01-01T06:33:39.352Z,1.87
2023-01-01T06:36:08.841Z,2.03
2023-01-01T06:38:37.651Z,1.77
2023-01-01T06:41:06.559Z,2.00
2023-01-01T06:43:35.631Z,2.27
2023-01-01T06:46:05.175Z,1.73
2023-01-01T06:48:35.625Z,2.03
2023-01-01T06:51:08.808Z,2.23
2023-01-01T06:53:37.134Z,2.00
2023-01-01T06:56:05.733Z,2.60
2023-01-01T06:58:33.958Z,2.23
2023-01-01T07:01:08.496Z,2.10
2023-01-01T07:03:37.419Z,1.90
2023-01-01T07:06:05.891Z,2.20
2023-01-01T07:08:35.454Z,2.27
2023-01-01T07:11:03.710Z,2.37
2023-01-01T07:13:32.423Z,2.03
2023-01-01T07:16:00.667Z,1.80
2023-01-01T07:18:28.930Z,2.33
2023-01-01T07:20:58.247Z,2.07
2023-01-01T07:23:26.454Z,2.50
2023-01-01T07:25:56.455Z,2.20
2023-01-01T07:28:25.557Z,2.20
2023-01-01T07:30:54.435Z,2.30
2023-01-01T07:33:23.281Z,1.63
2023-01-01T07:35:51.677Z,2.10
2023-01-01T07:38:19.853Z,2.33
2023-01-01T07:40:48.014Z,1.97
2023-01-01T07:43:17.491Z,2.13
2023-01-01T07:45:45.648Z,2.00
2023-01-01T07:48:15.926Z,2.00
2023-01-01T07:50:44.592Z,2.27
2023-01-01T07:53:12.740Z,2.00
2023-01-01T07:55:40.908Z,2.20
2023-01-01T07:58:09.043Z,2.20
2023-01-01T08:00:38.521Z,2.00
2023-01-01T08:03:06.970Z,2.13
2023-01-01T08:05:35.824Z,2.13
2023-01-01T08:08:04.059Z,2.23
2023-01-01T08:10:32.468Z,2.53
2023-01-01T08:13:01.378Z,2.53
2023-01-01T08:15:29.576Z,1.90
2023-01-01T08:17:59.724Z,2.40
2023-01-01T08:20:28.313Z,2.30
2023-01-01T08:23:00.152Z,2.13
2023-01-01T08:25:31.239Z,2.10
2023-01-01T08:27:59.393Z,2.20
2023-01-01T08:30:27.614Z,2.30
2023-01-01T08:32:55.801Z,1.93
2023-01-01T08:35:25.302Z,2.30
2023-01-01T08:37:53.848Z,2.10
2023-01-01T08:40:22.112Z,2.20
2023-01-01T08:42:50.246Z,2.10
2023-01-01T08:45:18.435Z,1.90
2023-01-01T08:47:46.604Z,1.97
2023-01-01T08:50:14.758Z,2.10
2023-01-01T08:52:44.247Z,2.30
2023-01-01T08:55:12.381Z,1.97
2023-01-01T08:57:40.525Z,2.00
2023-01-01T09:00:09.785Z,1.90
2023-01-01T09:02:38.168Z,1.90
2023-01-01T09:05:06.851Z,1.83
2023-01-01T09:07:35.007Z,2.00
2023-01-01T09:10:04.576Z,2.50
2023-01-01T09:12:32.761Z,2.40
2023-01-01T09:15:00.894Z,2.30
2023-01-01T09:17:29.002Z,1.90
2023-01-01T09:19:57.139Z,1.93
2023-01-01T09:22:25.299Z,2.33
2023-01-01T09:24:53.437Z,2.47
2023-01-01T09:27:23.051Z,1.90
2023-01-01T09:29:51.186Z,2.17
2023-01-01T09:32:19.606Z,2.00
2023-01-01T09:34:52.307Z,2.10
2023-01-01T09:37:20.897Z,2.00
2023-01-01T09:39:49.070Z,2.10
2023-01-01T09:42:25.652Z,2.30
2023-01-01T09:45:02.930Z,2.00
2023-01-01T09:47:32.197Z,2.53
2023-01-01T09:50:03.234Z,1.70
2023-01-01T09:52:37.416Z,2.23
2023-01-01T09:55:11.599Z,2.00
2023-01-01T09:57:41.155Z,2.03
2023-01-01T10:00:15.843Z,1.87
2023-01-01T10:02:53.549Z,1.80
2023-01-01T10:05:25.428Z,2.23
2023-01-01T10:07:58.093Z,2.10
2023-01-01T10:10:31.849Z,2.10
2023-01-01T10:13:05.396Z,1.90
2023-01-01T10:15:34.756Z,1.90
2023-01-01T10:18:05.249Z,2.07
2023-01-01T10:20:35.352Z,2.23
2023-01-01T10:23:06.595Z,2.03
2023-01-01T10:25:35.680Z,2.53
2023-01-01T10:28:06.665Z,2.90
2023-01-01T10:30:34.862Z,1.93
2023-01-01T10:33:03.165Z,2.00
2023-01-01T10:35:35.455Z,2.40
2023-01-01T10:38:05.104Z,2.20
2023-01-01T10:40:33.790Z,2.07
2023-01-01T10:43:03.874Z,1.83
2023-01-01T10:45:35.200Z,1.73
2023-01-01T10:48:17.139Z,2.10
2023-01-01T10:50:46.361Z,1.93
2023-01-01T10:53:25.854Z,1.70
2023-01-01T10:56:00.276Z,2.30
2023-01-01T10:58:29.245Z,2.33
2023-01-01T11:01:02.113Z,2.03
2023-01-01T11:03:30.371Z,1.67
2023-01-01T11:06:02.552Z,2.37
2023-01-01T11:08:32.376Z,2.10
2023-01-01T11:11:01.026Z,1.87
2023-01-01T11:13:29.638Z,1.90
2023-01-01T11:15:58.169Z,2.10
2023-01-01T11:18:35.396Z,1.73
2023-01-01T11:21:04.669Z,2.00
2023-01-01T11:23:34.838Z,2.10
2023-01-01T11:26:04.283Z,1.90
2023-01-01T11:28:34.348Z,1.70
2023-01-01T11:31:07.721Z,1.97
2023-01-01T11:33:38.586Z,1.60
2023-01-01T11:36:07.395Z,1.47
2023-01-01T11:38:36.087Z,1.87
2023-01-01T11:41:05.215Z,1.90
2023-01-01T11:43:36.808Z,1.60
2023-01-01T11:46:08.112Z,1.90
2023-01-01T11:48:38.317Z,1.97
2023-01-01T11:51:07.923Z,1.67
2023-01-01T11:53:36.799Z,2.00
2023-01-01T11:56:07.998Z,1.60
2023-01-01T11:58:39.780Z,1.80
2023-01-01T12:01:10.734Z,1.50
2023-01-01T12:03:42.013Z,2.00
2023-01-01T12:06:12.854Z,2.27
2023-01-01T12:08:42.938Z,1.70
2023-01-01T12:11:17.125Z,1.90
2023-01-01T12:13:52.282Z,2.00
2023-01-01T12:16:22.087Z,1.73
2023-01-01T12:18:54.491Z,1.47
2023-01-01T12:21:24.709Z,1.90
2023-01-01T12:23:53.241Z,1.87
2023-01-01T12:26:23.814Z,1.70
2023-01-01T12:29:07.445Z,1.87
2023-01-01T12:31:42.182Z,1.90
2023-01-01T12:34:14.941Z,1.90
2023-01-01T12:36:47.711Z,1.73
2023-01-01T12:39:40.015Z,1.50
2023-01-01T12:42:14.345Z,1.80
2023-01-01T12:44:48.682Z,2.13
2023-01-01T12:47:34.057Z,1.70
2023-01-01T12:50:07.606Z,1.80
2023-01-01T12:52:40.162Z,1.80
2023-01-01T12:55:37.263Z,2.00
2023-01-01T12:58:09.457Z,1.63
2023-01-01T13:00:39.949Z,1.70
2023-01-01T13:03:10.128Z,1.70
2023-01-01T13:05:41.632Z,1.73
2023-01-01T13:08:09.897Z,1.97
2023-01-01T13:10:40.150Z,1.80
2023-01-01T13:13:08.723Z,1.50
2023-01-01T13:15:44.319Z,2.07
2023-01-01T13:18:20.676Z,1.63
2023-01-01T13:20:56.893Z,1.60
2023-01-01T13:23:43.504Z,1.63
2023-01-01T13:26:30.511Z,1.60
2023-01-01T13:29:13.561Z,1.43
2023-01-01T13:31:56.617Z,1.50
2023-01-01T13:34:35.369Z,1.57
2023-01-01T13:37:22.257Z,1.87
2023-01-01T13:39:55.306Z,1.67
2023-01-01T13:42:43.117Z,1.53
2023-01-01T13:45:24.867Z,1.97
2023-01-01T13:48:12.026Z,1.50
2023-01-01T13:50:46.454Z,1.40
2023-01-01T13:53:39.036Z,1.30
2023-01-01T13:56:33.180Z,1.53
2023-01-01T13:59:22.352Z,1.90
2023-01-01T14:01:52.813Z,1.57
2023-01-01T14:04:31.761Z,1.37
2023-01-01T14:07:18.583Z,1.50
2023-01-01T14:09:49.229Z,1.43
2023-01-01T14:12:19.880Z,1.37
2023-01-01T14:14:48.491Z,1.50
2023-01-01T14:17:18.230Z,1.03
2023-01-01T14:19:46.456Z,1.70
2023-01-01T14:22:16.709Z,1.23
2023-01-01T14:24:45.498Z,1.77
2023-01-01T14:27:17.930Z,1.40
2023-01-01T14:29:48.090Z,1.50
2023-01-01T14:32:17.872Z,1.10
2023-01-01T14:34:46.181Z,1.17
2023-01-01T14:37:21.886Z,1.10
2023-01-01T14:40:06.260Z,1.30
2023-01-01T14:42:34.529Z,1.43
2023-01-01T14:45:04.477Z,1.40
2023-01-01T14:47:34.191Z,1.70
2023-01-01T14:50:04.508Z,1.30
2023-01-01T14:52:32.712Z,1.40
2023-01-01T14:55:01.958Z,1.50
2023-01-01T14:57:31.853Z,1.30
2023-01-01T14:59:59.999Z,1.10
2023-01-01T15:02:30.441Z,2.07
2023-01-01T15:04:59.154Z,1.40
2023-01-01T15:07:28.707Z,1.10
2023-01-01T15:09:57.705Z,1.30
2023-01-01T15:12:25.953Z,1.10
2023-01-01T15:14:54.950Z,1.50
2023-01-01T15:17:25.093Z,1.33
2023-01-01T15:20:04.287Z,1.40
2023-01-01T15:22:33.343Z,2.10
2023-01-01T15:25:01.978Z,1.53
2023-01-01T15:27:30.754Z,1.23
2023-01-01T15:29:59.246Z,1.30
2023-01-01T15:32:28.813Z,1.40
2023-01-01T15:34:57.624Z,1.50
2023-01-01T15:37:30.310Z,1.80
2023-01-01T15:39:59.121Z,1.60
2023-01-01T15:42:34.221Z,1.70
2023-01-01T15:45:20.880Z,1.70
2023-01-01T15:47:49.550Z,1.27
2023-01-01T15:50:22.771Z,1.40
2023-01-01T15:52:55.625Z,1.83
2023-01-01T15:55:24.695Z,1.60
2023-01-01T15:57:53.300Z,1.53
2023-01-01T16:00:22.563Z,1.87
2023-01-01T16:02:51.759Z,1.53
2023-01-01T16:05:21.263Z,1.40
2023-01-01T16:07:49.397Z,1.47
2023-01-01T16:10:19.255Z,1.70
2023-01-01T16:12:47.404Z,1.50
2023-01-01T16:15:16.460Z,1.80
2023-01-01T16:17:45.308Z,1.40
2023-01-01T16:20:15.764Z,1.90
2023-01-01T16:22:43.968Z,1.90
2023-01-01T16:25:15.731Z,1.90
2023-01-01T16:27:45.307Z,1.97
2023-01-01T16:30:14.142Z,1.90
2023-01-01T16:32:42.622Z,1.97
2023-01-01T16:35:13.653Z,2.07
2023-01-01T16:37:41.794Z,1.93
2023-01-01T16:40:10.378Z,2.43
2023-01-01T16:42:39.254Z,2.37
2023-01-01T16:45:09.727Z,1.70
2023-01-01T16:47:37.881Z,2.13
2023-01-01T16:50:06.314Z,1.90
2023-01-01T16:52:35.686Z,1.77
2023-01-01T16:55:07.006Z,1.80
2023-01-01T16:57:35.469Z,2.20
2023-01-01T17:00:03.672Z,2.20
2023-01-01T17:02:33.312Z,3.90
2023-01-01T17:05:01.524Z,2.50
2023-01-01T17:07:29.687Z,2.60
2023-01-01T17:09:57.902Z,2.10
2023-01-01T17:12:26.055Z,2.10
2023-01-01T17:14:54.213Z,2.00
2023-01-01T17:17:22.339Z,1.80
2023-01-01T17:19:51.827Z,2.17
2023-01-01T17:22:21.157Z,2.63
2023-01-01T17:24:49.340Z,2.17
2023-01-01T17:27:17.508Z,2.70
2023-01-01T17:29:45.708Z,2.60
2023-01-01T17:32:15.344Z,2.90
2023-01-01T17:34:43.487Z,2.60
2023-01-01T17:37:13.005Z,2.60
2023-01-01T17:39:41.120Z,2.90
2023-01-01T17:42:09.313Z,2.70
2023-01-01T17:44:37.492Z,4.17
2023-01-01T17:47:05.686Z,3.37
2023-01-01T17:49:33.825Z,2.97
2023-01-01T17:52:01.993Z,3.10
2023-01-01T17:54:31.501Z,2.90
2023-01-01T17:57:03.601Z,2.97
2023-01-01T17:59:32.432Z,3.60
2023-01-01T18:02:00.873Z,3.30
2023-01-01T18:04:29.581Z,3.97
2023-01-01T18:07:02.490Z,3.90
2023-01-01T18:09:38.227Z,4.70
2023-01-01T18:12:06.961Z,4.43
2023-01-01T18:14:35.178Z,3.87
2023-01-01T18:17:03.363Z,3.70
2023-01-01T18:19:32.377Z,3.53
2023-01-01T18:22:00.556Z,4.10
2023-01-01T18:24:28.772Z,3.37
2023-01-01T18:26:58.253Z,3.70
2023-01-01T18:29:26.409Z,4.33
2023-01-01T18:31:54.587Z,4.40
2023-01-01T18:34:22.761Z,3.60
2023-01-01T18:36:50.965Z,3.30
2023-01-01T18:39:22.590Z,3.47
2023-01-01T18:42:00.751Z,3.70
2023-01-01T18:44:31.584Z,4.00
2023-01-01T18:47:00.878Z,4.10
2023-01-01T18:49:30.629Z,4.40
2023-01-01T18:52:00.667Z,4.60
2023-01-01T18:54:28.829Z,4.57
2023-01-01T18:57:02.099Z,3.70
2023-01-01T18:59:31.952Z,4.80
2023-01-01T19:02:00.297Z,3.90
2023-01-01T19:04:28.746Z,3.90
2023-01-01T19:06:56.921Z,4.30
2023-01-01T19:09:26.782Z,3.90
2023-01-01T19:11:56.383Z,3.57
2023-01-01T19:14:25.596Z,3.90
2023-01-01T19:16:57.444Z,3.60
2023-01-01T19:19:26.491Z,3.60
2023-01-01T19:22:03.781Z,4.00
2023-01-01T19:24:33.198Z,4.13
2023-01-01T19:27:02.994Z,3.53
2023-01-01T19:29:31.761Z,3.43
2023-01-01T19:32:01.250Z,3.80
2023-01-01T19:34:29.382Z,3.80
2023-01-01T19:36:57.543Z,3.70
2023-01-01T19:39:25.710Z,4.63
2023-01-01T19:41:53.860Z,4.30
2023-01-01T19:44:25.265Z,3.80
2023-01-01T19:46:53.730Z,3.67
2023-01-01T19:49:23.256Z,3.50
2023-01-01T19:51:51.561Z,4.33
2023-01-01T19:54:19.743Z,3.73
2023-01-01T19:56:48.353Z,4.27
2023-01-01T19:59:16.526Z,3.60
2023-01-01T20:01:44.822Z,3.73
2023-01-01T20:04:13.122Z,4.10
2023-01-01T20:06:42.683Z,3.57
2023-01-01T20:09:10.821Z,4.90
2023-01-01T20:11:38.990Z,4.00
2023-01-01T20:14:07.144Z,3.87
2023-01-01T20:16:36.314Z,3.33
2023-01-01T20:19:04.575Z,3.87
2023-01-01T20:21:50.583Z,3.93
2023-01-01T20:24:20.077Z,3.83
2023-01-01T20:26:48.225Z,3.63
2023-01-01T20:29:21.343Z,3.30
2023-01-01T20:31:50.040Z,3.50
2023-01-01T20:34:18.245Z,3.40
2023-01-01T20:37:04.022Z,3.70
2023-01-01T20:39:33.633Z,3.80
2023-01-01T20:42:01.780Z,3.03
2023-01-01T20:44:30.149Z,3.40
2023-01-01T20:46:58.377Z,2.97
2023-01-01T20:49:26.521Z,3.60
2023-01-01T20:51:54.942Z,3.70
2023-01-01T20:54:23.620Z,3.27
2023-01-01T20:56:53.582Z,3.33
2023-01-01T20:59:38.949Z,3.80
2023-01-01T21:02:07.749Z,3.23
2023-01-01T21:04:38.320Z,3.30
2023-01-01T21:07:06.820Z,3.67
2023-01-01T21:09:34.965Z,3.40
2023-01-01T21:12:04.495Z,3.27
2023-01-01T21:14:32.634Z,3.40
2023-01-01T21:17:00.897Z,3.17
2023-01-01T21:19:29.442Z,2.93
2023-01-01T21:21:58.345Z,3.40
2023-01-01T21:24:27.858Z,2.90
2023-01-01T21:26:57.120Z,3.43
2023-01-01T21:29:27.188Z,3.40
2023-01-01T21:31:59.198Z,3.27
2023-01-01T21:34:33.099Z,2.73
2023-01-01T21:37:03.194Z,3.20
2023-01-01T21:39:31.551Z,2.90
2023-01-01T21:42:08.923Z,3.13
2023-01-01T21:44:38.479Z,3.27
2023-01-01T21:47:08.697Z,3.10
2023-01-01T21:49:38.431Z,3.00
2023-01-01T21:52:13.480Z,3.23
2023-01-01T21:54:41.661Z,3.40
2023-01-01T21:57:15.128Z,3.13
2023-01-01T21:59:45.912Z,3.00
2023-01-01T22:02:35.072Z,3.40
2023-01-01T22:05:04.596Z,2.60
2023-01-01T22:10:24.982Z,2.77
2023-01-01T22:12:55.505Z,3.00
2023-01-01T22:15:29.702Z,3.07
2023-01-01T22:18:02.994Z,3.00
2023-01-01T22:20:35.034Z,2.77
2023-01-01T22:23:05.501Z,2.80
2023-01-01T22:25:34.299Z,2.50
2023-01-01T22:28:06.920Z,3.00
2023-01-01T22:30:39.137Z,2.97
2023-01-01T22:33:13.074Z,2.43
2023-01-01T22:35:41.212Z,2.40
2023-01-01T22:38:09.527Z,2.30
2023-01-01T22:40:39.027Z,2.67
2023-01-01T22:43:08.042Z,2.67
2023-01-01T22:45:39.245Z,2.53
2023-01-01T22:48:08.487Z,2.40
2023-01-01T22:50:36.734Z,2.60
2023-01-01T22:53:04.877Z,2.50
2023-01-01T22:55:33.023Z,2.70
2023-01-01T22:58:01.171Z,2.53
2023-01-01T23:00:29.305Z,2.37
2023-01-01T23:02:58.939Z,2.70
2023-01-01T23:05:27.238Z,2.73
2023-01-01T23:07:55.390Z,2.67
2023-01-01T23:10:23.697Z,2.70
2023-01-01T23:12:51.859Z,2.47
2023-01-01T23:15:37.700Z,2.80
2023-01-01T23:18:09.278Z,2.53
2023-01-01T23:20:37.482Z,2.50
2023-01-01T23:23:05.607Z,2.63
2023-01-01T23:25:33.769Z,2.20
2023-01-01T23:28:01.938Z,3.57
2023-01-01T23:30:30.099Z,2.70
2023-01-01T23:32:58.264Z,2.80
2023-01-01T23:35:27.789Z,2.97
2023-01-01T23:37:56.038Z,2.43
2023-01-01T23:40:24.199Z,2.80
2023-01-01T23:42:52.337Z,2.23
2023-01-01T23:45:20.508Z,2.93
2023-01-01T23:47:48.713Z,2.97
2023-01-01T23:50:16.945Z,2.30
2023-01-01T23:52:46.513Z,3.10
2023-01-01T23:55:14.704Z,2.73
2023-01-01T23:57:42.862Z,2.20
